Everson, Washington
Current Conditions -  °F | °C
As of 5:00 PM on Thursday 27 Nov 2014 (Local Time) from CYXX Reporting Station
Rain Showers Rain Showers  
Wind Chill: 54°   Ceiling: 2500
Heat Index: 54°   Visibility: 10mi
Dew Point: 52°   Wind: 14mph
Humidity: 94%   Direction: 180°S
Pressure: 29.66"   Gusts: NA
Location:  48.92°N, 122.34°W
Report Text: CYXX 280100Z 18012KT 10SM -SHRA FEW010 BKN025 OVC035 12/11 A2966 RMK SF1SC5SC2 CVCTV CLD EMBD SLP043 DENSITY ALT 200FT
Loading
Personal Weather Stations






























Interactive Weather Map New forecast layout! Learn more

10-Day Weather Forecast

Advertisements
Track Severe Weather on mobile